createdAt,value
2023-05-21T00:00:00.962Z,89.48
2023-05-21T00:04:04.163Z,89.82
2023-05-21T00:06:05.552Z,90.12
2023-05-21T00:10:09.586Z,90.76
2023-05-21T00:16:12.704Z,91.26
2023-05-21T00:20:15.961Z,91.05
2023-05-21T00:22:17.087Z,90.99
2023-05-21T00:26:19.960Z,90.48
2023-05-21T00:30:21.816Z,90.69
2023-05-21T00:32:22.876Z,90.74
2023-05-21T00:36:26.253Z,90.62
2023-05-21T00:38:28.066Z,90.52
2023-05-21T00:42:30.770Z,90.79
2023-05-21T00:46:33.647Z,90.93
2023-05-21T00:48:35.262Z,90.84
2023-05-21T00:52:37.919Z,90.81
2023-05-21T00:54:39.806Z,91.07
2023-05-21T00:58:41.844Z,91.51
2023-05-21T01:00:43.202Z,91.74
2023-05-21T01:02:44.411Z,91.61
2023-05-21T01:04:45.510Z,91.52
2023-05-21T01:08:48.790Z,91.59
2023-05-21T01:12:51.684Z,91.54
2023-05-21T01:14:53.221Z,91.57
2023-05-21T01:18:56.964Z,91.73
2023-05-21T01:20:58.623Z,91.91
2023-05-21T01:25:00.692Z,92.03
2023-05-21T01:29:03.257Z,92.11
2023-05-21T01:31:04.434Z,92.33
2023-05-21T01:35:07.735Z,92.35
2023-05-21T01:37:08.825Z,92.42
2023-05-21T01:41:10.924Z,92.4
2023-05-21T01:45:13.885Z,92.39
2023-05-21T01:47:14.980Z,92.44
2023-05-21T01:51:17.292Z,92.56
2023-05-21T01:55:19.565Z,92.74
2023-05-21T01:57:20.806Z,92.66
2023-05-21T02:01:24.171Z,92.5
2023-05-21T02:03:25.154Z,92.35
2023-05-21T02:05:26.961Z,92.39
2023-05-21T02:07:28.725Z,92.31
2023-05-21T02:11:31.016Z,92.61
2023-05-21T02:13:31.959Z,92.77
2023-05-21T02:15:33.563Z,92.93
2023-05-21T02:17:34.430Z,93.21
2023-05-21T02:19:36.054Z,93.3
2023-05-21T02:23:38.777Z,93.35
2023-05-21T02:25:40.530Z,93.35
2023-05-21T02:27:42.056Z,93.27
2023-05-21T02:29:43.847Z,93.38
2023-05-21T02:33:45.992Z,93.64
2023-05-21T02:35:47.440Z,93.65
2023-05-21T02:38:32.168Z,93.64
2023-05-21T02:40:33.247Z,93.58
2023-05-21T02:44:35.918Z,93.64
2023-05-21T02:48:37.981Z,93.73
2023-05-21T02:50:39.614Z,93.63
2023-05-21T02:54:41.515Z,93.38
2023-05-21T02:56:42.591Z,93.37
2023-05-21T03:00:45.011Z,93.36
2023-05-21T03:04:47.856Z,93.5
2023-05-21T03:06:49.673Z,93.36
2023-05-21T03:10:52.636Z,93.23
2023-05-21T03:12:54.080Z,93.14
2023-05-21T03:16:56.943Z,92.9
2023-05-21T03:20:59.887Z,93
2023-05-21T03:23:01.475Z,93.06
2023-05-21T03:27:03.535Z,93.15
2023-05-21T03:31:06.320Z,93.13
2023-05-21T03:33:07.894Z,93.19
2023-05-21T03:37:10.509Z,93.45
2023-05-21T03:39:11.437Z,93.6
2023-05-21T03:41:12.964Z,93.46
2023-05-21T03:43:14.730Z,93.46
2023-05-21T03:47:17.176Z,93.37
2023-05-21T03:49:18.341Z,93.45
2023-05-21T03:51:19.414Z,93.54
2023-05-21T03:53:20.628Z,93.5
2023-05-21T03:55:22.437Z,93.67
2023-05-21T03:59:25.480Z,93.93
2023-05-21T04:01:26.474Z,94.15
2023-05-21T04:03:27.973Z,94.45
2023-05-21T04:05:29.281Z,94.54
2023-05-21T04:09:32.144Z,94.81
2023-05-21T04:11:33.079Z,95.17
2023-05-21T04:15:35.741Z,94.7
2023-05-21T04:19:38.260Z,94.04
2023-05-21T04:21:39.281Z,93.86
2023-05-21T04:25:42.371Z,93.65
2023-05-21T04:29:45.123Z,93.55
2023-05-21T04:31:46.291Z,93.29
2023-05-21T04:35:48.234Z,92.98
2023-05-21T04:37:49.286Z,92.88
2023-05-21T04:41:52.181Z,92.25
2023-05-21T04:45:55.609Z,92.21
2023-05-21T04:47:56.896Z,92.36
2023-05-21T04:51:59.088Z,91.85
2023-05-21T04:54:09.546Z,91.42
2023-05-21T04:58:03.432Z,91.5
2023-05-21T05:02:07.033Z,90.81
2023-05-21T05:04:07.402Z,90.6
2023-05-21T05:08:11.425Z,90.82
2023-05-21T05:12:12.658Z,90.83
2023-05-21T05:14:14.452Z,90.99
2023-05-21T05:18:18.032Z,90.72
2023-05-21T05:20:28.339Z,90.39
2023-05-21T05:24:21.929Z,90.01
2023-05-21T05:26:23.337Z,90.42
2023-05-21T05:30:25.567Z,90.15
2023-05-21T05:34:28.523Z,89.32
2023-05-21T05:36:30.481Z,88.66
2023-05-21T05:40:41.107Z,88.54
2023-05-21T05:44:35.594Z,88.05
2023-05-21T05:46:37.533Z,87.66
2023-05-21T05:50:39.568Z,86.89
2023-05-21T05:52:41.310Z,87.66
2023-05-21T05:56:43.105Z,86.99
2023-05-21T06:00:45.827Z,85.81
2023-05-21T06:02:47.031Z,86.71
2023-05-21T06:06:49.230Z,85.19
2023-05-21T06:08:50.922Z,84.72
2023-05-21T06:12:53.365Z,84.55
2023-05-21T06:16:55.961Z,83.86
2023-05-21T06:18:57.647Z,83.8
2023-05-21T06:23:00.172Z,82.15
2023-05-21T06:29:03.748Z,81.21
2023-05-21T06:33:06.401Z,81.72
2023-05-21T06:35:08.114Z,80.37
2023-05-21T06:39:10.752Z,81
2023-05-21T06:41:12.290Z,80.45
2023-05-21T06:43:13.187Z,80.27
2023-05-21T06:45:14.466Z,80.85
2023-05-21T06:49:16.718Z,79.13
2023-05-21T06:51:17.651Z,79.79
2023-05-21T06:55:20.029Z,76.95
2023-05-21T06:59:22.172Z,78.02
2023-05-21T07:01:23.248Z,77.83
2023-05-21T07:05:24.960Z,75.95
2023-05-21T07:07:26.713Z,74.25
2023-05-21T07:11:30.020Z,75.51
2023-05-21T07:15:32.136Z,73.48
2023-05-21T07:17:33.110Z,74.92
2023-05-21T07:21:35.376Z,73.15
2023-05-21T07:25:38.832Z,73.35
2023-05-21T07:27:40.341Z,72.64
2023-05-21T07:31:43.147Z,72.3
2023-05-21T07:33:44.065Z,71.72
2023-05-21T07:37:47.032Z,70.59
2023-05-21T07:41:49.411Z,70.02
2023-05-21T07:43:50.705Z,70.38
2023-05-21T07:47:53.514Z,71.48
2023-05-21T07:49:54.644Z,68.25
2023-05-21T07:53:57.897Z,67.56
2023-05-21T07:58:00.409Z,67.28
2023-05-21T08:00:02.113Z,67.42
2023-05-21T08:04:05.164Z,68.69
2023-05-21T08:08:06.814Z,67.87
2023-05-21T08:10:08.332Z,67.95
2023-05-21T08:14:10.773Z,66.51
2023-05-21T08:16:13.349Z,66.39
2023-05-21T08:18:15.027Z,67.04
2023-05-21T08:20:16.068Z,65.39
2023-05-21T08:24:18.632Z,64.9
2023-05-21T08:26:19.827Z,65.02
2023-05-21T08:28:21.171Z,64.52
2023-05-21T08:30:22.477Z,63.86
2023-05-21T08:32:24.174Z,62.72
2023-05-21T08:36:26.170Z,63.17
2023-05-21T08:40:28.851Z,64.55
2023-05-21T08:46:33.008Z,63.14
2023-05-21T08:48:34.262Z,61.13
2023-05-21T08:52:37.265Z,59.25
2023-05-21T08:56:39.706Z,64.63
2023-05-21T08:58:40.620Z,61.82
2023-05-21T09:02:43.344Z,60.72
2023-05-21T09:06:46.797Z,63.57
2023-05-21T09:08:47.820Z,61.58
2023-05-21T09:12:50.056Z,62.6
2023-05-21T09:14:51.540Z,59.98
2023-05-21T09:18:53.619Z,59.95
2023-05-21T09:22:56.469Z,62.4
2023-05-21T09:25:40.953Z,60.53
2023-05-21T09:29:43.490Z,61.46
2023-05-21T09:33:46.234Z,60.68
2023-05-21T09:35:47.806Z,58.15
2023-05-21T09:39:49.700Z,59.69
2023-05-21T09:43:52.114Z,59.78
2023-05-21T09:45:54.314Z,59.85
2023-05-21T09:49:57.035Z,63.3
2023-05-21T09:51:58.786Z,60
2023-05-21T09:54:00.420Z,63.86
2023-05-21T09:56:02.044Z,58.39
2023-05-21T10:00:04.569Z,60.19
2023-05-21T10:02:05.462Z,60.34
2023-05-21T10:06:08.415Z,58.07
2023-05-21T10:08:09.442Z,57.61
2023-05-21T10:12:12.647Z,61.65
2023-05-21T10:16:15.742Z,58.21
2023-05-21T10:18:17.507Z,54.01
2023-05-21T10:22:20.264Z,53.06
2023-05-21T10:24:21.482Z,54.3
2023-05-21T10:28:23.439Z,51.46
2023-05-21T10:32:26.165Z,53.12
2023-05-21T10:34:27.448Z,50.72
2023-05-21T10:36:29.835Z,50.96
2023-05-21T10:38:30.718Z,50.18
2023-05-21T10:42:32.868Z,53.66
2023-05-21T10:44:34.614Z,52.25
2023-05-21T10:48:37.398Z,53.25
2023-05-21T10:50:38.483Z,49.84
2023-05-21T10:54:41.175Z,51.38
2023-05-21T10:58:43.830Z,52.35
2023-05-21T11:00:44.580Z,50.36
2023-05-21T11:04:48.508Z,52.69
2023-05-21T11:06:49.855Z,49.91
2023-05-21T11:08:59.764Z,50.57
2023-05-21T11:10:51.589Z,51.74
2023-05-21T11:14:54.397Z,52.13
2023-05-21T11:16:55.343Z,51
2023-05-21T11:20:57.757Z,52.49
2023-05-21T11:25:00.535Z,52.81
2023-05-21T11:27:02.283Z,49.12
2023-05-21T11:31:04.951Z,50.33
2023-05-21T11:33:06.507Z,48.4
2023-05-21T11:37:08.753Z,51.68
2023-05-21T11:41:10.890Z,51.4
2023-05-21T11:43:11.880Z,50.61
2023-05-21T11:47:14.805Z,54.27
2023-05-21T11:49:16.076Z,52.04
2023-05-21T11:53:18.757Z,48.53
2023-05-21T11:57:21.135Z,51.34
2023-05-21T11:59:22.770Z,50.06
2023-05-21T12:03:26.083Z,49.87
2023-05-21T12:09:29.073Z,46.25
2023-05-21T12:13:32.399Z,44.25
2023-05-21T12:15:33.913Z,50.04
2023-05-21T12:17:35.260Z,50.16
2023-05-21T12:19:36.125Z,48.22
2023-05-21T12:23:38.029Z,44.92
2023-05-21T12:25:39.456Z,45.09
2023-05-21T12:29:42.191Z,47.66
2023-05-21T12:31:43.138Z,47.33
2023-05-21T12:35:45.927Z,44.3
2023-05-21T12:39:48.498Z,46.69
2023-05-21T12:41:49.410Z,48.94
2023-05-21T12:45:51.915Z,50.93
2023-05-21T12:47:52.791Z,49.97
2023-05-21T12:51:55.065Z,50.67
2023-05-21T12:55:57.351Z,50.82
2023-05-21T12:57:58.432Z,46.74
2023-05-21T13:02:00.795Z,47.45
2023-05-21T13:06:03.629Z,46.52
2023-05-21T13:08:05.206Z,43.97
2023-05-21T13:12:08.136Z,47.4
2023-05-21T13:14:09.817Z,48.3
2023-05-21T13:18:13.578Z,45.56
2023-05-21T13:22:15.539Z,47.73
2023-05-21T13:24:16.336Z,46.67
2023-05-21T13:28:18.624Z,46.52
2023-05-21T13:30:19.655Z,44.74
2023-05-21T13:34:21.799Z,44.76
2023-05-21T13:38:25.318Z,45.26
2023-05-21T13:40:26.614Z,48.93
2023-05-21T13:44:29.095Z,49.82
2023-05-21T13:48:32.375Z,48.99
2023-05-21T13:50:33.271Z,49.2
2023-05-21T13:54:35.830Z,47.91
2023-05-21T13:56:36.852Z,49.63
2023-05-21T14:00:39.468Z,48.25
2023-05-21T14:04:41.540Z,48.95
2023-05-21T14:06:51.618Z,49.28
2023-05-21T14:08:43.911Z,48.39
2023-05-21T14:10:45.521Z,48.88
2023-05-21T14:12:47.142Z,49.39
2023-05-21T14:16:49.666Z,49
2023-05-21T14:20:51.463Z,48.51
2023-05-21T14:22:53.044Z,49.42
2023-05-21T14:26:55.862Z,46.48
2023-05-21T14:28:56.719Z,47.19
2023-05-21T14:32:58.273Z,46.81
2023-05-21T14:37:01.273Z,47.98
2023-05-21T14:39:02.323Z,48.95
2023-05-21T14:43:05.631Z,49.68
2023-05-21T14:47:08.022Z,51.35
2023-05-21T14:49:09.415Z,46.92
2023-05-21T14:53:13.293Z,47.15
2023-05-21T14:55:14.988Z,48.27
2023-05-21T14:59:17.453Z,49.47
2023-05-21T15:03:20.128Z,49.11
2023-05-21T15:05:21.145Z,50.31
2023-05-21T15:09:23.897Z,53.36
2023-05-21T15:11:25.240Z,51.4
2023-05-21T15:15:28.046Z,50.79
2023-05-21T15:19:30.880Z,51.3
2023-05-21T15:21:33.314Z,52.81
2023-05-21T15:25:36.079Z,53.61
2023-05-21T15:31:39.066Z,55.57
2023-05-21T15:35:42.276Z,57.65
2023-05-21T15:37:43.313Z,54.22
2023-05-21T15:41:46.327Z,53.51
2023-05-21T15:45:49.005Z,56.94
2023-05-21T15:47:50.515Z,55.39
2023-05-21T15:51:53.865Z,56.35
2023-05-21T15:53:56.077Z,57.09
2023-05-21T15:57:59.596Z,58.25
2023-05-21T16:00:00.522Z,56.1
2023-05-21T16:02:02.272Z,59.48
2023-05-21T16:04:03.351Z,59.03
2023-05-21T16:08:05.312Z,57.11
2023-05-21T16:10:50.063Z,59.94
2023-05-21T16:12:51.798Z,59.5
2023-05-21T16:14:52.719Z,59.12
2023-05-21T16:18:55.204Z,60.19
2023-05-21T16:22:57.880Z,57.66
2023-05-21T16:24:59.408Z,59.47
2023-05-21T16:29:02.308Z,60.56
2023-05-21T16:31:03.072Z,60.38
2023-05-21T16:35:06.027Z,59.04
2023-05-21T16:39:08.702Z,58.85
2023-05-21T16:41:10.189Z,59.64
2023-05-21T16:45:12.627Z,57.36
2023-05-21T16:47:13.906Z,58.69
2023-05-21T16:51:16.725Z,60.77
2023-05-21T16:55:19.614Z,59.13
2023-05-21T16:57:21.001Z,58.05
2023-05-21T17:01:23.930Z,59.83
2023-05-21T17:05:26.549Z,58.67
2023-05-21T17:07:28.033Z,62.5
2023-05-21T17:11:30.632Z,63.47
2023-05-21T17:13:32.264Z,61.23
2023-05-21T17:15:33.448Z,63.09
2023-05-21T17:17:34.534Z,64.61
2023-05-21T17:21:36.550Z,62.95
2023-05-21T17:23:37.911Z,61
2023-05-21T17:25:39.442Z,62.47
2023-05-21T17:27:40.497Z,66.55
2023-05-21T17:29:41.960Z,60.96
2023-05-21T17:33:44.847Z,63.63
2023-05-21T17:37:47.777Z,66.91
2023-05-21T17:39:49.501Z,68.03
2023-05-21T17:43:51.909Z,64.24
2023-05-21T17:49:56.385Z,63.3
2023-05-21T17:53:59.129Z,62.77
2023-05-21T17:56:00.072Z,63.38
2023-05-21T18:00:02.812Z,66.36
2023-05-21T18:04:05.881Z,67.34
2023-05-21T18:06:09.360Z,67.61
2023-05-21T18:10:09.979Z,66.82
2023-05-21T18:12:11.397Z,67.66
2023-05-21T18:16:14.379Z,68.36
2023-05-21T18:20:17.311Z,67.67
2023-05-21T18:22:18.218Z,68.84
2023-05-21T18:24:19.107Z,68.38
2023-05-21T18:28:20.916Z,68.31
2023-05-21T18:32:23.499Z,68.47
2023-05-21T18:36:26.277Z,70.65
2023-05-21T18:38:27.659Z,70.03
2023-05-21T18:42:30.450Z,69.62
2023-05-21T18:46:32.623Z,68.46
2023-05-21T18:48:34.348Z,69.12
2023-05-21T18:52:37.909Z,69.49
2023-05-21T18:54:39.510Z,68.91
2023-05-21T18:58:42.226Z,71
2023-05-21T19:02:44.299Z,71.87
2023-05-21T19:04:45.152Z,71.91
2023-05-21T19:06:46.705Z,71.78
2023-05-21T19:08:48.168Z,71.74
2023-05-21T19:10:49.554Z,72.66
2023-05-21T19:14:52.360Z,72.94
2023-05-21T19:18:54.873Z,73.89
2023-05-21T19:20:55.761Z,74.85
2023-05-21T19:24:57.986Z,77.45
2023-05-21T19:26:59.754Z,78.01
2023-05-21T19:31:02.283Z,77.21
2023-05-21T19:35:05.227Z,80.82
2023-05-21T19:37:06.844Z,80.74
2023-05-21T19:41:09.796Z,78.35
2023-05-21T19:45:12.380Z,78.83
2023-05-21T19:47:13.480Z,78.93
2023-05-21T19:51:16.494Z,80.32
2023-05-21T19:53:18.351Z,81.16
2023-05-21T19:57:21.021Z,79.72
2023-05-21T20:01:24.439Z,78.84
2023-05-21T20:03:26.090Z,79.9
2023-05-21T20:07:28.528Z,81.09
2023-05-21T20:09:30.231Z,81.59
2023-05-21T20:13:32.951Z,82.21
2023-05-21T20:15:34.164Z,82.52
2023-05-21T20:19:36.586Z,83.38
2023-05-21T20:23:40.043Z,83.46
2023-05-21T20:27:42.289Z,83.57
2023-05-21T20:29:43.609Z,83.43
2023-05-21T20:33:47.213Z,83.74
2023-05-21T20:35:48.409Z,84.06
2023-05-21T20:39:50.813Z,84.48
2023-05-21T20:43:53.250Z,85.04
2023-05-21T20:45:54.758Z,85.01
2023-05-21T20:49:57.612Z,85.31
2023-05-21T20:51:59.073Z,85.4
2023-05-21T20:56:02.442Z,85.8
2023-05-21T21:00:05.621Z,85.95
2023-05-21T21:02:07.232Z,86.24
2023-05-21T21:06:09.837Z,86.57
2023-05-21T21:10:12.621Z,87.13
2023-05-21T21:12:25.075Z,87.22
2023-05-21T21:16:16.344Z,87.42
2023-05-21T21:18:17.746Z,87.23
2023-05-21T21:22:21.335Z,87.25
2023-05-21T21:26:24.248Z,87.46
2023-05-21T21:28:25.502Z,87.66
2023-05-21T21:32:27.567Z,88.56
2023-05-21T21:34:28.962Z,88.82
2023-05-21T21:38:31.553Z,89.14
2023-05-21T21:42:34.030Z,89.14
2023-05-21T21:44:35.611Z,89.58
2023-05-21T21:48:37.746Z,90.18
2023-05-21T21:50:39.050Z,90.45
2023-05-21T21:54:41.856Z,90.13
2023-05-21T21:56:42.824Z,90.31
2023-05-21T22:00:45.363Z,90.07
2023-05-21T22:04:47.815Z,90.34
2023-05-21T22:08:50.245Z,90.92
2023-05-21T22:10:51.615Z,91.19
2023-05-21T22:14:54.398Z,91.45
2023-05-21T22:16:55.862Z,91.34
2023-05-21T22:20:58.727Z,91.87
2023-05-21T22:25:00.680Z,92.34
2023-05-21T22:27:01.850Z,92.35
2023-05-21T22:31:04.887Z,92.47
2023-05-21T22:33:06.282Z,92.55
2023-05-21T22:37:08.307Z,93.23
2023-05-21T22:39:09.477Z,93.16
2023-05-21T22:41:11.060Z,93.47
2023-05-21T22:47:14.118Z,93.2
2023-05-21T22:49:15.735Z,93.7
2023-05-21T22:51:17.416Z,93.76
2023-05-21T22:53:18.450Z,94.03
2023-05-21T22:56:03.256Z,93.99
2023-05-21T22:58:04.375Z,93.95
2023-05-21T23:04:07.843Z,93.49
2023-05-21T23:08:10.838Z,93.74
2023-05-21T23:10:12.602Z,93.87
2023-05-21T23:14:15.053Z,94.17
2023-05-21T23:18:17.071Z,94.48
2023-05-21T23:20:18.613Z,94.87
2023-05-21T23:24:21.585Z,94.98
2023-05-21T23:26:22.967Z,95.02
2023-05-21T23:28:24.081Z,95.24
2023-05-21T23:30:25.555Z,95.31
2023-05-21T23:34:28.424Z,95.22
2023-05-21T23:36:29.659Z,95.26
2023-05-21T23:38:30.975Z,95.69
2023-05-21T23:40:32.450Z,95.5
2023-05-21T23:42:33.663Z,95.53
2023-05-21T23:46:37.352Z,95.72
2023-05-21T23:48:38.525Z,95.79
2023-05-21T23:50:40.183Z,95.76
2023-05-21T23:52:41.635Z,95.78
2023-05-21T23:56:44.400Z,96.15
2023-05-21T23:58:46.225Z,96.02
